METAR Data
IDs: Format: Raw Decoded Include TAF

Data at: 2000 UTC 25 Oct 2021

LFQQ 251930Z AUTO 19005KT 9999 SCT030 BKN044 BKN074 12/11 Q1018 TEMPO 4000 SHRA BKN009 BKN020CB